sensor_id;sensor_type;location;lat;lon;timestamp;pressure;altitude;pressure_sealevel;temperature;humidity
3444;BME280;1736;52.068;6.968;2022-10-31T00:00:29;101532.81;;;13.28;100.00
3444;BME280;1736;52.068;6.968;2022-10-31T00:02:56;101526.78;;;13.26;100.00
3444;BME280;1736;52.068;6.968;2022-10-31T00:05:22;101524.34;;;13.23;100.00
3444;BME280;1736;52.068;6.968;2022-10-31T00:07:51;101530.09;;;13.18;100.00
3444;BME280;1736;52.068;6.968;2022-10-31T00:10:18;101521.22;;;13.18;100.00
3444;BME280;1736;52.068;6.968;2022-10-31T00:12:46;101534.78;;;13.15;100.00
3444;BME280;1736;52.068;6.968;2022-10-31T00:15:12;101530.69;;;13.11;100.00
3444;BME280;1736;52.068;6.968;2022-10-31T00:17:39;101534.19;;;13.11;100.00
3444;BME280;1736;52.068;6.968;2022-10-31T00:20:06;101540.50;;;13.10;100.00
3444;BME280;1736;52.068;6.968;2022-10-31T00:22:33;101526.84;;;13.04;100.00
3444;BME280;1736;52.068;6.968;2022-10-31T00:24:59;101532.66;;;12.98;100.00
3444;BME280;1736;52.068;6.968;2022-10-31T00:27:26;101536.38;;;12.95;100.00
3444;BME280;1736;52.068;6.968;2022-10-31T00:29:54;101534.56;;;12.96;100.00
3444;BME280;1736;52.068;6.968;2022-10-31T00:32:20;101532.97;;;12.93;100.00
3444;BME280;1736;52.068;6.968;2022-10-31T00:34:47;101536.16;;;12.98;100.00
3444;BME280;1736;52.068;6.968;2022-10-31T00:37:13;101535.31;;;12.98;100.00
3444;BME280;1736;52.068;6.968;2022-10-31T00:39:40;101528.50;;;12.94;100.00
3444;BME280;1736;52.068;6.968;2022-10-31T00:42:06;101527.63;;;12.93;100.00
3444;BME280;1736;52.068;6.968;2022-10-31T00:44:33;101530.19;;;12.95;100.00
3444;BME280;1736;52.068;6.968;2022-10-31T00:47:00;101540.25;;;12.91;100.00
3444;BME280;1736;52.068;6.968;2022-10-31T00:49:27;101542.78;;;12.93;100.00
3444;BME280;1736;52.068;6.968;2022-10-31T00:51:53;101543.16;;;12.88;100.00
3444;BME280;1736;52.068;6.968;2022-10-31T00:54:20;101539.91;;;12.85;100.00
3444;BME280;1736;52.068;6.968;2022-10-31T00:56:47;101538.44;;;12.81;100.00
3444;BME280;1736;52.068;6.968;2022-10-31T00:59:13;101543.28;;;12.76;100.00
3444;BME280;1736;52.068;6.968;2022-10-31T01:01:39;101542.66;;;12.72;100.00
3444;BME280;1736;52.068;6.968;2022-10-31T01:04:07;101542.78;;;12.71;100.00
3444;BME280;1736;52.068;6.968;2022-10-31T01:06:34;101544.63;;;12.70;100.00
3444;BME280;1736;52.068;6.968;2022-10-31T01:09:00;101541.09;;;12.70;100.00
3444;BME280;1736;52.068;6.968;2022-10-31T01:11:27;101547.41;;;12.69;100.00
3444;BME280;1736;52.068;6.968;2022-10-31T01:13:53;101543.88;;;12.68;100.00
3444;BME280;1736;52.068;6.968;2022-10-31T01:16:22;101545.44;;;12.71;100.00
3444;BME280;1736;52.068;6.968;2022-10-31T01:18:49;101544.75;;;12.69;100.00
3444;BME280;1736;52.068;6.968;2022-10-31T01:21:18;101541.97;;;12.70;100.00
3444;BME280;1736;52.068;6.968;2022-10-31T01:23:45;101536.50;;;12.72;100.00
3444;BME280;1736;52.068;6.968;2022-10-31T01:26:14;101541.09;;;12.70;100.00
3444;BME280;1736;52.068;6.968;2022-10-31T01:28:44;101545.84;;;12.66;100.00
3444;BME280;1736;52.068;6.968;2022-10-31T01:31:11;101535.41;;;12.63;100.00
3444;BME280;1736;52.068;6.968;2022-10-31T01:33:37;101540.16;;;12.60;100.00
3444;BME280;1736;52.068;6.968;2022-10-31T01:36:12;101540.59;;;12.54;100.00
3444;BME280;1736;52.068;6.968;2022-10-31T01:38:40;101532.38;;;12.46;100.00
3444;BME280;1736;52.068;6.968;2022-10-31T01:41:08;101533.69;;;12.40;100.00
3444;BME280;1736;52.068;6.968;2022-10-31T01:43:44;101528.88;;;12.34;100.00
3444;BME280;1736;52.068;6.968;2022-10-31T01:46:11;101535.28;;;12.32;100.00
3444;BME280;1736;52.068;6.968;2022-10-31T01:48:39;101531.03;;;12.29;100.00
3444;BME280;1736;52.068;6.968;2022-10-31T01:51:07;101541.44;;;12.32;100.00
3444;BME280;1736;52.068;6.968;2022-10-31T01:53:35;101529.72;;;12.35;100.00
3444;BME280;1736;52.068;6.968;2022-10-31T01:56:04;101532.63;;;12.32;100.00
3444;BME280;1736;52.068;6.968;2022-10-31T01:58:31;101526.81;;;12.27;100.00
3444;BME280;1736;52.068;6.968;2022-10-31T02:00:59;101530.41;;;12.26;100.00
3444;BME280;1736;52.068;6.968;2022-10-31T02:03:26;101533.94;;;12.26;100.00
3444;BME280;1736;52.068;6.968;2022-10-31T02:05:55;101535.72;;;12.26;100.00
3444;BME280;1736;52.068;6.968;2022-10-31T02:08:26;101542.41;;;12.31;100.00
3444;BME280;1736;52.068;6.968;2022-10-31T02:10:54;101550.03;;;12.36;100.00
3444;BME280;1736;52.068;6.968;2022-10-31T02:13:22;101544.72;;;12.36;100.00
3444;BME280;1736;52.068;6.968;2022-10-31T02:15:52;101548.22;;;12.36;100.00
3444;BME280;1736;52.068;6.968;2022-10-31T02:18:19;101547.59;;;12.33;100.00
3444;BME280;1736;52.068;6.968;2022-10-31T02:20:54;101554.25;;;12.27;100.00
3444;BME280;1736;52.068;6.968;2022-10-31T02:26:48;101557.97;;;12.14;100.00
3444;BME280;1736;52.068;6.968;2022-10-31T02:29:42;101553.34;;;12.05;100.00
3444;BME280;1736;52.068;6.968;2022-10-31T02:32:18;101559.97;;;11.99;100.00
3444;BME280;1736;52.068;6.968;2022-10-31T02:34:53;101552.47;;;11.93;100.00
3444;BME280;1736;52.068;6.968;2022-10-31T02:37:26;101556.44;;;11.88;100.00
3444;BME280;1736;52.068;6.968;2022-10-31T02:40:00;101549.75;;;11.82;100.00
3444;BME280;1736;52.068;6.968;2022-10-31T02:42:34;101535.97;;;11.77;100.00
3444;BME280;1736;52.068;6.968;2022-10-31T02:45:08;101527.25;;;11.75;100.00
3444;BME280;1736;52.068;6.968;2022-10-31T02:47:41;101519.91;;;11.79;100.00
3444;BME280;1736;52.068;6.968;2022-10-31T02:50:11;101524.03;;;11.83;100.00
3444;BME280;1736;52.068;6.968;2022-10-31T02:52:39;101525.50;;;11.87;100.00
3444;BME280;1736;52.068;6.968;2022-10-31T02:55:10;101526.47;;;11.97;100.00
3444;BME280;1736;52.068;6.968;2022-10-31T02:57:37;101535.81;;;12.02;100.00
3444;BME280;1736;52.068;6.968;2022-10-31T03:00:09;101538.25;;;12.05;100.00
3444;BME280;1736;52.068;6.968;2022-10-31T03:02:51;101553.34;;;12.05;100.00
3444;BME280;1736;52.068;6.968;2022-10-31T03:05:31;101550.91;;;12.02;100.00
3444;BME280;1736;52.068;6.968;2022-10-31T03:08:07;101550.91;;;12.02;100.00
3444;BME280;1736;52.068;6.968;2022-10-31T03:10:41;101543.19;;;11.99;100.00
3444;BME280;1736;52.068;6.968;2022-10-31T03:13:12;101552.47;;;11.93;100.00
3444;BME280;1736;52.068;6.968;2022-10-31T03:15:44;101555.97;;;11.94;100.00
3444;BME280;1736;52.068;6.968;2022-10-31T03:18:15;101550.91;;;11.91;100.00
3444;BME280;1736;52.068;6.968;2022-10-31T03:20:51;101550.03;;;11.90;100.00
3444;BME280;1736;52.068;6.968;2022-10-31T03:23:21;101557.16;;;11.90;100.00
3444;BME280;1736;52.068;6.968;2022-10-31T03:25:50;101558.13;;;11.89;100.00
3444;BME280;1736;52.068;6.968;2022-10-31T03:28:23;101551.13;;;11.88;100.00
3444;BME280;1736;52.068;6.968;2022-10-31T03:30:53;101559.81;;;11.90;100.00
3444;BME280;1736;52.068;6.968;2022-10-31T03:33:26;101549.94;;;11.92;100.00
3444;BME280;1736;52.068;6.968;2022-10-31T03:35:55;101556.94;;;11.93;100.00
3444;BME280;1736;52.068;6.968;2022-10-31T03:38:23;101556.72;;;11.96;100.00
3444;BME280;1736;52.068;6.968;2022-10-31T03:40:51;101545.31;;;11.94;100.00
3444;BME280;1736;52.068;6.968;2022-10-31T03:43:23;101543.91;;;12.01;100.00
3444;BME280;1736;52.068;6.968;2022-10-31T03:45:52;101542.22;;;12.00;100.00
3444;BME280;1736;52.068;6.968;2022-10-31T03:48:21;101532.28;;;12.02;100.00
3444;BME280;1736;52.068;6.968;2022-10-31T03:50:54;101534.00;;;12.03;100.00
3444;BME280;1736;52.068;6.968;2022-10-31T03:53:27;101541.13;;;12.02;100.00
3444;BME280;1736;52.068;6.968;2022-10-31T03:56:00;101546.34;;;12.04;100.00
3444;BME280;1736;52.068;6.968;2022-10-31T03:58:29;101542.09;;;12.01;100.00
3444;BME280;1736;52.068;6.968;2022-10-31T04:01:00;101537.59;;;12.02;100.00
3444;BME280;1736;52.068;6.968;2022-10-31T04:03:32;101537.59;;;12.02;100.00
3444;BME280;1736;52.068;6.968;2022-10-31T04:06:04;101548.25;;;12.02;100.00
3444;BME280;1736;52.068;6.968;2022-10-31T04:08:36;101556.59;;;11.97;100.00
3444;BME280;1736;52.068;6.968;2022-10-31T04:11:04;101560.34;;;11.95;100.00
3444;BME280;1736;52.068;6.968;2022-10-31T04:13:33;101554.50;;;11.90;100.00
3444;BME280;1736;52.068;6.968;2022-10-31T04:16:01;101558.34;;;11.86;100.00
3444;BME280;1736;52.068;6.968;2022-10-31T04:18:28;101557.75;;;11.82;100.00
3444;BME280;1736;52.068;6.968;2022-10-31T04:21:03;101554.69;;;11.76;100.00
3444;BME280;1736;52.068;6.968;2022-10-31T04:23:31;101556.84;;;11.71;100.00
3444;BME280;1736;52.068;6.968;2022-10-31T04:25:58;101559.03;;;11.66;100.00
3444;BME280;1736;52.068;6.968;2022-10-31T04:28:25;101559.34;;;11.61;100.00
3444;BME280;1736;52.068;6.968;2022-10-31T04:30:52;101558.94;;;11.55;100.00
3444;BME280;1736;52.068;6.968;2022-10-31T04:33:18;101563.84;;;11.48;100.00
3444;BME280;1736;52.068;6.968;2022-10-31T04:35:45;101563.19;;;11.45;100.00
3444;BME280;1736;52.068;6.968;2022-10-31T04:38:13;101563.44;;;11.42;100.00
3444;BME280;1736;52.068;6.968;2022-10-31T04:40:40;101564.53;;;11.39;100.00
3444;BME280;1736;52.068;6.968;2022-10-31T04:43:06;101564.84;;;11.35;100.00
3444;BME280;1736;52.068;6.968;2022-10-31T04:45:33;101557.09;;;11.32;100.00
3444;BME280;1736;52.068;6.968;2022-10-31T04:47:59;101562.75;;;11.27;100.00
3444;BME280;1736;52.068;6.968;2022-10-31T04:50:26;101560.53;;;11.21;100.00
3444;BME280;1736;52.068;6.968;2022-10-31T04:52:52;101558.22;;;11.17;100.00
3444;BME280;1736;52.068;6.968;2022-10-31T04:55:20;101560.13;;;11.15;100.00
3444;BME280;1736;52.068;6.968;2022-10-31T04:57:49;101563.97;;;11.11;100.00
3444;BME280;1736;52.068;6.968;2022-10-31T05:00:18;101557.19;;;11.07;100.00
3444;BME280;1736;52.068;6.968;2022-10-31T05:02:45;101552.06;;;11.04;100.00
3444;BME280;1736;52.068;6.968;2022-10-31T05:05:12;101549.66;;;11.01;100.00
3444;BME280;1736;52.068;6.968;2022-10-31T05:07:39;101541.69;;;11.01;100.00
3444;BME280;1736;52.068;6.968;2022-10-31T05:10:07;101540.84;;;11.00;100.00
3444;BME280;1736;52.068;6.968;2022-10-31T05:12:36;101546.38;;;10.97;100.00
3444;BME280;1736;52.068;6.968;2022-10-31T05:15:03;101542.13;;;10.95;100.00
3444;BME280;1736;52.068;6.968;2022-10-31T05:17:30;101544.06;;;10.93;100.00
3444;BME280;1736;52.068;6.968;2022-10-31T05:19:57;101538.00;;;10.91;100.00
3444;BME280;1736;52.068;6.968;2022-10-31T05:22:23;101529.41;;;10.87;100.00
3444;BME280;1736;52.068;6.968;2022-10-31T05:24:50;101531.41;;;10.84;100.00
3444;BME280;1736;52.068;6.968;2022-10-31T05:27:16;101523.44;;;10.84;100.00
3444;BME280;1736;52.068;6.968;2022-10-31T05:29:44;101521.13;;;10.79;100.00
3444;BME280;1736;52.068;6.968;2022-10-31T05:32:10;101520.47;;;10.76;100.00
3444;BME280;1736;52.068;6.968;2022-10-31T05:34:37;101527.63;;;10.75;100.00
3444;BME280;1736;52.068;6.968;2022-10-31T05:37:03;101528.69;;;10.73;100.00
3444;BME280;1736;52.068;6.968;2022-10-31T05:39:30;101536.25;;;10.66;100.00
3444;BME280;1736;52.068;6.968;2022-10-31T05:41:56;101540.28;;;10.59;100.00
3444;BME280;1736;52.068;6.968;2022-10-31T05:44:23;101529.97;;;10.54;100.00
3444;BME280;1736;52.068;6.968;2022-10-31T05:46:51;101535.38;;;10.53;100.00
3444;BME280;1736;52.068;6.968;2022-10-31T05:49:17;101538.03;;;10.53;100.00
3444;BME280;1736;52.068;6.968;2022-10-31T05:51:44;101535.72;;;10.48;100.00
3444;BME280;1736;52.068;6.968;2022-10-31T05:54:10;101529.66;;;10.46;100.00
3444;BME280;1736;52.068;6.968;2022-10-31T05:56:37;101529.66;;;10.46;100.00
3444;BME280;1736;52.068;6.968;2022-10-31T05:59:04;101533.28;;;10.45;100.00
3444;BME280;1736;52.068;6.968;2022-10-31T06:01:30;101529.91;;;10.43;100.00
3444;BME280;1736;52.068;6.968;2022-10-31T06:03:58;101531.59;;;10.44;100.00
3444;BME280;1736;52.068;6.968;2022-10-31T06:06:25;101531.69;;;10.43;100.00
3444;BME280;1736;52.068;6.968;2022-10-31T06:12:13;101523.72;;;10.43;100.00
3444;BME280;1736;52.068;6.968;2022-10-31T06:14:40;101533.38;;;10.44;100.00
3444;BME280;1736;52.068;6.968;2022-10-31T06:17:06;101525.53;;;10.42;100.00
3444;BME280;1736;52.068;6.968;2022-10-31T06:19:34;101537.09;;;10.41;100.00
3444;BME280;1736;52.068;6.968;2022-10-31T06:22:00;101538.78;;;10.42;100.00
3444;BME280;1736;52.068;6.968;2022-10-31T06:24:27;101531.78;;;10.41;100.00
3444;BME280;1736;52.068;6.968;2022-10-31T06:26:53;101530.00;;;10.42;100.00
3444;BME280;1736;52.068;6.968;2022-10-31T06:29:20;101531.16;;;10.38;100.00
3444;BME280;1736;52.068;6.968;2022-10-31T06:31:46;101539.34;;;10.35;100.00
3444;BME280;1736;52.068;6.968;2022-10-31T06:34:13;101545.25;;;10.38;100.00
3444;BME280;1736;52.068;6.968;2022-10-31T06:36:40;101555.16;;;10.36;100.00
3444;BME280;1736;52.068;6.968;2022-10-31T06:39:07;101546.84;;;10.41;100.00
3444;BME280;1736;52.068;6.968;2022-10-31T06:41:34;101546.97;;;10.39;100.00
3444;BME280;1736;52.068;6.968;2022-10-31T06:44:01;101541.13;;;10.34;100.00
3444;BME280;1736;52.068;6.968;2022-10-31T06:46:28;101537.75;;;10.32;100.00
3444;BME280;1736;52.068;6.968;2022-10-31T06:48:54;101545.69;;;10.32;100.00
3444;BME280;1736;52.068;6.968;2022-10-31T06:51:21;101546.44;;;10.34;100.00
3444;BME280;1736;52.068;6.968;2022-10-31T06:53:49;101553.22;;;10.38;100.00
3444;BME280;1736;52.068;6.968;2022-10-31T06:56:15;101556.44;;;10.43;100.00
3444;BME280;1736;52.068;6.968;2022-10-31T06:58:42;101557.91;;;10.48;100.00
3444;BME280;1736;52.068;6.968;2022-10-31T07:01:08;101562.06;;;10.52;100.00
3444;BME280;1736;52.068;6.968;2022-10-31T07:03:35;101562.78;;;10.53;100.00
3444;BME280;1736;52.068;6.968;2022-10-31T07:06:01;101562.78;;;10.53;100.00
3444;BME280;1736;52.068;6.968;2022-10-31T07:08:28;101559.16;;;10.54;100.00
3444;BME280;1736;52.068;6.968;2022-10-31T07:10:57;101560.66;;;10.58;100.00
3444;BME280;1736;52.068;6.968;2022-10-31T07:13:24;101553.34;;;10.62;100.00
3444;BME280;1736;52.068;6.968;2022-10-31T07:15:52;101563.63;;;10.67;100.00
3444;BME280;1736;52.068;6.968;2022-10-31T07:18:19;101554.38;;;10.72;100.00
3444;BME280;1736;52.068;6.968;2022-10-31T07:20:46;101557.66;;;10.76;100.00
3444;BME280;1736;52.068;6.968;2022-10-31T07:23:12;101553.97;;;10.78;100.00
3444;BME280;1736;52.068;6.968;2022-10-31T07:25:39;101559.88;;;10.82;100.00
3444;BME280;1736;52.068;6.968;2022-10-31T07:28:08;101566.78;;;10.84;100.00
3444;BME280;1736;52.068;6.968;2022-10-31T07:30:35;101561.38;;;10.86;100.00
3444;BME280;1736;52.068;6.968;2022-10-31T07:33:01;101561.38;;;10.86;100.00
3444;BME280;1736;52.068;6.968;2022-10-31T07:35:29;101564.66;;;10.89;100.00
3444;BME280;1736;52.068;6.968;2022-10-31T07:37:56;101560.00;;;10.93;100.00
3444;BME280;1736;52.068;6.968;2022-10-31T07:40:23;101565.06;;;10.96;100.00
3444;BME280;1736;52.068;6.968;2022-10-31T07:42:51;101570.16;;;10.99;100.00
3444;BME280;1736;52.068;6.968;2022-10-31T07:45:20;101556.88;;;10.99;100.00
3444;BME280;1736;52.068;6.968;2022-10-31T07:47:48;101560.16;;;11.02;100.00
3444;BME280;1736;52.068;6.968;2022-10-31T07:50:17;101562.69;;;11.04;100.00
3444;BME280;1736;52.068;6.968;2022-10-31T07:52:43;101565.25;;;11.05;100.00
3444;BME280;1736;52.068;6.968;2022-10-31T07:55:11;101562.38;;;11.08;100.00
3444;BME280;1736;52.068;6.968;2022-10-31T07:57:38;101556.09;;;11.09;100.00
3444;BME280;1736;52.068;6.968;2022-10-31T08:00:05;101567.50;;;11.11;100.00
3444;BME280;1736;52.068;6.968;2022-10-31T08:02:34;101574.16;;;11.17;100.00
3444;BME280;1736;52.068;6.968;2022-10-31T08:05:00;101563.09;;;11.23;100.00
3444;BME280;1736;52.068;6.968;2022-10-31T08:07:28;101562.63;;;11.29;100.00
3444;BME280;1736;52.068;6.968;2022-10-31T08:09:55;101553.25;;;11.36;100.00
3444;BME280;1736;52.068;6.968;2022-10-31T08:12:22;101558.03;;;11.43;100.00
3444;BME280;1736;52.068;6.968;2022-10-31T08:14:48;101566.16;;;11.53;100.00
3444;BME280;1736;52.068;6.968;2022-10-31T08:17:16;101562.00;;;11.61;100.00
3444;BME280;1736;52.068;6.968;2022-10-31T08:19:43;101562.28;;;11.69;100.00
3444;BME280;1736;52.068;6.968;2022-10-31T08:22:10;101558.09;;;11.78;100.00
3444;BME280;1736;52.068;6.968;2022-10-31T08:24:36;101552.69;;;11.90;100.00
3444;BME280;1736;52.068;6.968;2022-10-31T08:27:03;101554.91;;;11.96;100.00
3444;BME280;1736;52.068;6.968;2022-10-31T08:29:29;101554.31;;;12.04;100.00
3444;BME280;1736;52.068;6.968;2022-10-31T08:31:57;101544.81;;;12.12;100.00
3444;BME280;1736;52.068;6.968;2022-10-31T08:34:24;101546.63;;;12.23;100.00
3444;BME280;1736;52.068;6.968;2022-10-31T08:36:51;101551.25;;;12.32;100.00
3444;BME280;1736;52.068;6.968;2022-10-31T08:39:18;101542.91;;;12.47;100.00
3444;BME280;1736;52.068;6.968;2022-10-31T08:41:44;101540.25;;;12.58;100.00
3444;BME280;1736;52.068;6.968;2022-10-31T08:44:11;101542.78;;;12.71;100.00
3444;BME280;1736;52.068;6.968;2022-10-31T08:46:37;101538.44;;;12.81;100.00
3444;BME280;1736;52.068;6.968;2022-10-31T08:49:04;101541.69;;;12.95;100.00
3444;BME280;1736;52.068;6.968;2022-10-31T08:51:30;101541.34;;;13.11;100.00
3444;BME280;1736;52.068;6.968;2022-10-31T08:53:58;101539.66;;;13.21;100.00
3444;BME280;1736;52.068;6.968;2022-10-31T08:56:24;101533.53;;;13.41;100.00
3444;BME280;1736;52.068;6.968;2022-10-31T08:58:52;101539.78;;;13.51;100.00
3444;BME280;1736;52.068;6.968;2022-10-31T09:01:19;101543.53;;;13.59;100.00
3444;BME280;1736;52.068;6.968;2022-10-31T09:03:46;101544.13;;;13.63;100.00
3444;BME280;1736;52.068;6.968;2022-10-31T09:06:12;101541.91;;;13.68;100.00
3444;BME280;1736;52.068;6.968;2022-10-31T09:08:39;101541.41;;;13.74;100.00
3444;BME280;1736;52.068;6.968;2022-10-31T09:11:06;101548.63;;;13.83;100.00
3444;BME280;1736;52.068;6.968;2022-10-31T09:13:33;101553.94;;;13.94;100.00
3444;BME280;1736;52.068;6.968;2022-10-31T09:15:59;101540.50;;;14.05;100.00
3444;BME280;1736;52.068;6.968;2022-10-31T09:18:26;101541.44;;;14.15;100.00
3444;BME280;1736;52.068;6.968;2022-10-31T09:20:54;101538.19;;;14.32;100.00
3444;BME280;1736;52.068;6.968;2022-10-31T09:23:23;101541.50;;;14.45;100.00
3444;BME280;1736;52.068;6.968;2022-10-31T09:25:51;101545.78;;;14.57;98.59
3444;BME280;1736;52.068;6.968;2022-10-31T09:28:20;101544.72;;;14.69;96.37
3444;BME280;1736;52.068;6.968;2022-10-31T09:30:48;101545.06;;;14.85;96.10
3444;BME280;1736;52.068;6.968;2022-10-31T09:33:15;101544.97;;;14.96;93.62
3444;BME280;1736;52.068;6.968;2022-10-31T09:35:42;101538.84;;;15.14;90.15
3444;BME280;1736;52.068;6.968;2022-10-31T09:38:10;101539.41;;;15.18;88.16
3444;BME280;1736;52.068;6.968;2022-10-31T09:40:38;101534.66;;;15.31;87.61
3444;BME280;1736;52.068;6.968;2022-10-31T09:43:13;101528.94;;;15.36;85.42
3444;BME280;1736;52.068;6.968;2022-10-31T09:45:48;101524.00;;;15.50;84.20
3444;BME280;1736;52.068;6.968;2022-10-31T09:48:28;101521.78;;;15.65;83.33
3444;BME280;1736;52.068;6.968;2022-10-31T09:50:59;101526.13;;;15.75;82.43
3444;BME280;1736;52.068;6.968;2022-10-31T09:53:32;101516.56;;;15.82;82.11
3444;BME280;1736;52.068;6.968;2022-10-31T09:56:01;101516.13;;;15.96;81.12
3444;BME280;1736;52.068;6.968;2022-10-31T09:58:29;101512.03;;;16.02;81.26
3444;BME280;1736;52.068;6.968;2022-10-31T10:00:59;101513.28;;;16.07;80.63
3444;BME280;1736;52.068;6.968;2022-10-31T10:03:32;101506.66;;;16.11;80.72
3444;BME280;1736;52.068;6.968;2022-10-31T10:06:06;101504.22;;;16.27;78.96
3444;BME280;1736;52.068;6.968;2022-10-31T10:08:34;101500.69;;;16.27;79.02
3444;BME280;1736;52.068;6.968;2022-10-31T10:11:13;101502.97;;;16.22;77.66
3444;BME280;1736;52.068;6.968;2022-10-31T10:13:57;101496.34;;;16.26;78.15
3444;BME280;1736;52.068;6.968;2022-10-31T10:16:39;101495.78;;;16.22;77.29
3444;BME280;1736;52.068;6.968;2022-10-31T10:19:21;101487.34;;;16.17;77.78
3444;BME280;1736;52.068;6.968;2022-10-31T10:21:57;101488.75;;;16.21;78.48
3444;BME280;1736;52.068;6.968;2022-10-31T10:24:33;101488.97;;;16.37;78.08
3444;BME280;1736;52.068;6.968;2022-10-31T10:27:13;101494.19;;;16.48;77.69
3444;BME280;1736;52.068;6.968;2022-10-31T10:29:49;101494.75;;;16.52;76.52
3444;BME280;1736;52.068;6.968;2022-10-31T10:32:22;101488.50;;;16.61;75.44
3444;BME280;1736;52.068;6.968;2022-10-31T10:34:52;101488.38;;;16.62;76.33
3444;BME280;1736;52.068;6.968;2022-10-31T10:37:28;101490.25;;;16.79;74.69
3444;BME280;1736;52.068;6.968;2022-10-31T10:40:02;101488.88;;;16.75;74.90
3444;BME280;1736;52.068;6.968;2022-10-31T10:42:34;101480.53;;;16.78;74.41
3444;BME280;1736;52.068;6.968;2022-10-31T10:45:19;101481.75;;;16.84;74.71
3444;BME280;1736;52.068;6.968;2022-10-31T10:48:14;101469.59;;;16.89;74.57
3444;BME280;1736;52.068;6.968;2022-10-31T10:50:44;101471.34;;;16.98;74.58
3444;BME280;1736;52.068;6.968;2022-10-31T10:53:25;101459.34;;;17.02;74.11
3444;BME280;1736;52.068;6.968;2022-10-31T10:56:11;101458.81;;;16.99;73.89
3444;BME280;1736;52.068;6.968;2022-10-31T10:58:38;101451.56;;;17.26;72.75
3444;BME280;1736;52.068;6.968;2022-10-31T11:01:11;101443.84;;;17.23;73.19
3444;BME280;1736;52.068;6.968;2022-10-31T11:03:40;101442.53;;;17.27;73.79
3444;BME280;1736;52.068;6.968;2022-10-31T11:06:17;101422.75;;;17.28;74.06
3444;BME280;1736;52.068;6.968;2022-10-31T11:08:47;101415.38;;;17.30;73.96
3444;BME280;1736;52.068;6.968;2022-10-31T11:11:23;101409.41;;;17.36;74.20
3444;BME280;1736;52.068;6.968;2022-10-31T11:13:57;101413.53;;;17.31;74.47
3444;BME280;1736;52.068;6.968;2022-10-31T11:16:30;101411.25;;;17.53;73.94
3444;BME280;1736;52.068;6.968;2022-10-31T11:19:08;101400.75;;;17.60;73.81
3444;BME280;1736;52.068;6.968;2022-10-31T11:21:36;101410.38;;;17.70;73.62
3444;BME280;1736;52.068;6.968;2022-10-31T11:24:03;101402.50;;;17.94;72.68
3444;BME280;1736;52.068;6.968;2022-10-31T11:26:30;101398.94;;;17.86;73.46
3444;BME280;1736;52.068;6.968;2022-10-31T11:29:00;101397.38;;;17.83;73.57
3444;BME280;1736;52.068;6.968;2022-10-31T11:31:28;101394.03;;;17.81;74.15
3444;BME280;1736;52.068;6.968;2022-10-31T11:33:58;101387.81;;;17.81;74.46
3444;BME280;1736;52.068;6.968;2022-10-31T11:36:30;101391.34;;;17.81;74.91
3444;BME280;1736;52.068;6.968;2022-10-31T11:38:58;101384.66;;;17.85;75.31
3444;BME280;1736;52.068;6.968;2022-10-31T11:41:27;101375.97;;;17.91;74.61
3444;BME280;1736;52.068;6.968;2022-10-31T11:43:56;101375.91;;;17.83;74.66
3444;BME280;1736;52.068;6.968;2022-10-31T11:46:27;101375.38;;;17.80;74.69
3444;BME280;1736;52.068;6.968;2022-10-31T11:48:56;101375.09;;;17.83;75.27
3444;BME280;1736;52.068;6.968;2022-10-31T11:51:25;101362.03;;;17.88;74.82
3444;BME280;1736;52.068;6.968;2022-10-31T11:53:55;101357.44;;;17.80;75.09
3444;BME280;1736;52.068;6.968;2022-10-31T11:56:24;101344.34;;;17.77;75.65
3444;BME280;1736;52.068;6.968;2022-10-31T11:58:58;101331.91;;;17.76;76.11
3444;BME280;1736;52.068;6.968;2022-10-31T12:01:27;101317.50;;;17.77;75.35
3444;BME280;1736;52.068;6.968;2022-10-31T12:04:02;101326.06;;;17.81;75.75
3444;BME280;1736;52.068;6.968;2022-10-31T12:06:33;101319.75;;;17.98;75.24
3444;BME280;1736;52.068;6.968;2022-10-31T12:09:02;101312.53;;;17.90;74.88
3444;BME280;1736;52.068;6.968;2022-10-31T12:11:51;101308.50;;;17.94;75.22
3444;BME280;1736;52.068;6.968;2022-10-31T12:14:36;101310.75;;;17.73;75.90
3444;BME280;1736;52.068;6.968;2022-10-31T12:17:11;101319.47;;;17.75;75.70
3444;BME280;1736;52.068;6.968;2022-10-31T12:19:42;101314.97;;;17.76;75.81
3444;BME280;1736;52.068;6.968;2022-10-31T12:22:19;101296.94;;;17.60;76.93
3444;BME280;1736;52.068;6.968;2022-10-31T12:25:03;101296.50;;;17.47;76.95
3444;BME280;1736;52.068;6.968;2022-10-31T12:27:43;101293.03;;;17.37;78.10
3444;BME280;1736;52.068;6.968;2022-10-31T12:30:20;101301.47;;;17.42;78.24
3444;BME280;1736;52.068;6.968;2022-10-31T12:33:00;101300.50;;;17.43;78.47
3444;BME280;1736;52.068;6.968;2022-10-31T12:35:39;101302.44;;;17.59;78.39
3444;BME280;1736;52.068;6.968;2022-10-31T12:38:26;101297.94;;;17.59;78.02
3444;BME280;1736;52.068;6.968;2022-10-31T12:41:07;101287.63;;;17.47;78.72
3444;BME280;1736;52.068;6.968;2022-10-31T12:43:43;101289.28;;;17.48;79.00
3444;BME280;1736;52.068;6.968;2022-10-31T12:46:19;101287.69;;;17.37;79.42
3444;BME280;1736;52.068;6.968;2022-10-31T12:49:11;101276.78;;;17.39;79.21
3444;BME280;1736;52.068;6.968;2022-10-31T12:51:50;101253.09;;;17.34;79.90
3444;BME280;1736;52.068;6.968;2022-10-31T12:54:36;101246.41;;;17.38;79.95
3444;BME280;1736;52.068;6.968;2022-10-31T12:57:13;101218.78;;;17.38;80.37
3444;BME280;1736;52.068;6.968;2022-10-31T12:59:45;101220.25;;;17.32;80.56
3444;BME280;1736;52.068;6.968;2022-10-31T13:02:19;101225.81;;;17.39;80.81
3444;BME280;1736;52.068;6.968;2022-10-31T13:04:49;101239.69;;;17.34;80.90
3444;BME280;1736;52.068;6.968;2022-10-31T13:07:21;101209.63;;;17.23;81.41
3444;BME280;1736;52.068;6.968;2022-10-31T13:09:55;101194.03;;;17.26;81.79
3444;BME280;1736;52.068;6.968;2022-10-31T13:12:26;101197.25;;;17.30;82.15
3444;BME280;1736;52.068;6.968;2022-10-31T13:14:56;101202.69;;;17.38;81.74
3444;BME280;1736;52.068;6.968;2022-10-31T13:17:28;101194.78;;;17.36;81.41
3444;BME280;1736;52.068;6.968;2022-10-31T13:20:08;101186.38;;;17.31;81.90
3444;BME280;1736;52.068;6.968;2022-10-31T13:22:42;101187.31;;;17.22;82.36